sensor_id;sensor_type;location;lat;lon;timestamp;pressure;altitude;pressure_sealevel;temperature;humidity
12195;BME280;27023;42.680;23.132;2022-09-01T00:00:11;92036.22;;;15.03;100.00
12195;BME280;27023;42.680;23.132;2022-09-01T00:02:39;92041.88;;;15.01;100.00
12195;BME280;27023;42.680;23.132;2022-09-01T00:05:08;92039.59;;;15.00;100.00
12195;BME280;27023;42.680;23.132;2022-09-01T00:07:34;92032.03;;;15.02;100.00
12195;BME280;27023;42.680;23.132;2022-09-01T00:10:05;92029.75;;;15.04;100.00
12195;BME280;27023;42.680;23.132;2022-09-01T00:12:33;92037.34;;;15.02;100.00
12195;BME280;27023;42.680;23.132;2022-09-01T00:14:59;92033.56;;;15.03;100.00
12195;BME280;27023;42.680;23.132;2022-09-01T00:17:27;92035.81;;;15.01;100.00
12195;BME280;27023;42.680;23.132;2022-09-01T00:19:55;92032.00;;;14.94;100.00
12195;BME280;27023;42.680;23.132;2022-09-01T00:22:22;92029.03;;;15.10;100.00
12195;BME280;27023;42.680;23.132;2022-09-01T00:24:48;92034.31;;;15.07;100.00
12195;BME280;27023;42.680;23.132;2022-09-01T00:27:16;92035.03;;;14.89;100.00
12195;BME280;27023;42.680;23.132;2022-09-01T00:29:42;92036.16;;;14.88;100.00
12195;BME280;27023;42.680;23.132;2022-09-01T00:32:09;92034.97;;;14.86;100.00
12195;BME280;27023;42.680;23.132;2022-09-01T00:34:37;92044.91;;;15.00;100.00
12195;BME280;27023;42.680;23.132;2022-09-01T00:37:04;92044.06;;;14.85;100.00
12195;BME280;27023;42.680;23.132;2022-09-01T00:39:31;92052.38;;;14.76;100.00
12195;BME280;27023;42.680;23.132;2022-09-01T00:41:58;92053.47;;;14.68;100.00
12195;BME280;27023;42.680;23.132;2022-09-01T00:44:25;92045.53;;;14.72;100.00
12195;BME280;27023;42.680;23.132;2022-09-01T00:46:53;92039.06;;;14.66;100.00
12195;BME280;27023;42.680;23.132;2022-09-01T00:49:25;92041.69;;;14.62;100.00
12195;BME280;27023;42.680;23.132;2022-09-01T00:51:59;92040.56;;;14.67;100.00
12195;BME280;27023;42.680;23.132;2022-09-01T00:54:30;92043.63;;;14.72;100.00
12195;BME280;27023;42.680;23.132;2022-09-01T00:56:59;92047.81;;;14.77;100.00
12195;BME280;27023;42.680;23.132;2022-09-01T00:59:27;92042.91;;;14.79;100.00
12195;BME280;27023;42.680;23.132;2022-09-01T01:01:55;92041.00;;;14.76;100.00
12195;BME280;27023;42.680;23.132;2022-09-01T01:04:22;92033.34;;;14.63;100.00
12195;BME280;27023;42.680;23.132;2022-09-01T01:06:52;92028.06;;;14.63;100.00
12195;BME280;27023;42.680;23.132;2022-09-01T01:09:26;92022.38;;;14.65;100.00
12195;BME280;27023;42.680;23.132;2022-09-01T01:11:53;92025.03;;;14.69;100.00
12195;BME280;27023;42.680;23.132;2022-09-01T01:14:24;92030.03;;;14.81;100.00
12195;BME280;27023;42.680;23.132;2022-09-01T01:16:52;92019.84;;;14.90;100.00
12195;BME280;27023;42.680;23.132;2022-09-01T01:19:22;92025.78;;;14.62;100.00
12195;BME280;27023;42.680;23.132;2022-09-01T01:22:13;92023.88;;;14.62;100.00
12195;BME280;27023;42.680;23.132;2022-09-01T01:25:02;92022.84;;;14.85;100.00
12195;BME280;27023;42.680;23.132;2022-09-01T01:27:31;92030.31;;;14.61;100.00
12195;BME280;27023;42.680;23.132;2022-09-01T01:29:59;92031.06;;;14.58;100.00
12195;BME280;27023;42.680;23.132;2022-09-01T01:32:27;92036.00;;;14.60;100.00
12195;BME280;27023;42.680;23.132;2022-09-01T01:34:54;92036.38;;;14.62;100.00
12195;BME280;27023;42.680;23.132;2022-09-01T01:37:22;92022.03;;;14.70;100.00
12195;BME280;27023;42.680;23.132;2022-09-01T01:39:49;92036.47;;;14.83;100.00
12195;BME280;27023;42.680;23.132;2022-09-01T01:42:18;92042.59;;;14.87;100.00
12195;BME280;27023;42.680;23.132;2022-09-01T01:44:44;92046.25;;;14.69;100.00
12195;BME280;27023;42.680;23.132;2022-09-01T01:47:12;92045.09;;;14.62;100.00
12195;BME280;27023;42.680;23.132;2022-09-01T01:49:40;92050.41;;;14.66;100.00
12195;BME280;27023;42.680;23.132;2022-09-01T01:52:09;92053.47;;;14.68;100.00
12195;BME280;27023;42.680;23.132;2022-09-01T01:54:39;92048.53;;;14.70;100.00
12195;BME280;27023;42.680;23.132;2022-09-01T01:57:06;92053.84;;;14.67;100.00
12195;BME280;27023;42.680;23.132;2022-09-01T01:59:34;92057.28;;;14.74;100.00
12195;BME280;27023;42.680;23.132;2022-09-01T02:02:03;92058.41;;;14.70;100.00
12195;BME280;27023;42.680;23.132;2022-09-01T02:04:34;92058.41;;;14.73;100.00
12195;BME280;27023;42.680;23.132;2022-09-01T02:07:01;92063.75;;;14.80;100.00
12195;BME280;27023;42.680;23.132;2022-09-01T02:09:28;92068.22;;;14.62;100.00
12195;BME280;27023;42.680;23.132;2022-09-01T02:11:54;92076.13;;;14.58;100.00
12195;BME280;27023;42.680;23.132;2022-09-01T02:14:23;92066.28;;;14.55;100.00
12195;BME280;27023;42.680;23.132;2022-09-01T02:16:51;92069.69;;;14.56;100.00
12195;BME280;27023;42.680;23.132;2022-09-01T02:19:20;92059.91;;;14.67;100.00
12195;BME280;27023;42.680;23.132;2022-09-01T02:21:47;92068.97;;;14.66;100.00
12195;BME280;27023;42.680;23.132;2022-09-01T02:24:18;92066.03;;;14.78;100.00
12195;BME280;27023;42.680;23.132;2022-09-01T02:26:45;92059.97;;;14.81;100.00
12195;BME280;27023;42.680;23.132;2022-09-01T02:29:15;92059.91;;;14.67;100.00
12195;BME280;27023;42.680;23.132;2022-09-01T02:31:47;92055.69;;;14.59;100.00
12195;BME280;27023;42.680;23.132;2022-09-01T02:34:16;92056.47;;;14.67;100.00
12195;BME280;27023;42.680;23.132;2022-09-01T02:36:45;92052.34;;;14.69;100.00
12195;BME280;27023;42.680;23.132;2022-09-01T02:39:13;92046.53;;;14.49;100.00
12195;BME280;27023;42.680;23.132;2022-09-01T02:41:40;92042.28;;;14.38;100.00
12195;BME280;27023;42.680;23.132;2022-09-01T02:44:07;92035.91;;;14.46;100.00
12195;BME280;27023;42.680;23.132;2022-09-01T02:46:37;92039.41;;;14.64;100.00
12195;BME280;27023;42.680;23.132;2022-09-01T02:49:07;92042.00;;;14.50;100.00
12195;BME280;27023;42.680;23.132;2022-09-01T02:51:42;92034.72;;;14.40;100.00
12195;BME280;27023;42.680;23.132;2022-09-01T02:54:10;92030.28;;;14.58;100.00
12195;BME280;27023;42.680;23.132;2022-09-01T02:56:41;92038.66;;;14.60;100.00
12195;BME280;27023;42.680;23.132;2022-09-01T02:59:09;92035.91;;;14.46;100.00
12195;BME280;27023;42.680;23.132;2022-09-01T03:01:37;92033.56;;;14.41;100.00
12195;BME280;27023;42.680;23.132;2022-09-01T03:04:05;92034.72;;;14.40;100.00
12195;BME280;27023;42.680;23.132;2022-09-01T03:06:35;92043.91;;;14.53;100.00
12195;BME280;27023;42.680;23.132;2022-09-01T03:09:06;92046.59;;;14.60;100.00
12195;BME280;27023;42.680;23.132;2022-09-01T03:11:35;92049.31;;;14.74;100.00
12195;BME280;27023;42.680;23.132;2022-09-01T03:14:03;92040.72;;;14.91;100.00
12195;BME280;27023;42.680;23.132;2022-09-01T03:16:30;92050.19;;;14.89;100.00
12195;BME280;27023;42.680;23.132;2022-09-01T03:18:57;92050.41;;;14.66;100.00
12195;BME280;27023;42.680;23.132;2022-09-01T03:21:24;92048.53;;;14.70;100.00
12195;BME280;27023;42.680;23.132;2022-09-01T03:23:52;92056.44;;;14.56;100.00
12195;BME280;27023;42.680;23.132;2022-09-01T03:26:20;92056.00;;;14.50;100.00
12195;BME280;27023;42.680;23.132;2022-09-01T03:28:48;92054.47;;;14.46;100.00
12195;BME280;27023;42.680;23.132;2022-09-01T03:31:15;92053.72;;;14.49;100.00
12195;BME280;27023;42.680;23.132;2022-09-01T03:33:43;92052.34;;;14.73;100.00
12195;BME280;27023;42.680;23.132;2022-09-01T03:36:10;92059.66;;;14.86;100.00
12195;BME280;27023;42.680;23.132;2022-09-01T03:38:43;92048.91;;;14.65;100.00
12195;BME280;27023;42.680;23.132;2022-09-01T03:41:14;92051.59;;;14.72;100.00
12195;BME280;27023;42.680;23.132;2022-09-01T03:43:44;92047.81;;;14.73;100.00
12195;BME280;27023;42.680;23.132;2022-09-01T03:46:12;92055.34;;;14.64;100.00
12195;BME280;27023;42.680;23.132;2022-09-01T03:48:44;92056.06;;;14.61;100.00
12195;BME280;27023;42.680;23.132;2022-09-01T03:51:13;92049.63;;;14.62;100.00
12195;BME280;27023;42.680;23.132;2022-09-01T03:53:40;92051.50;;;14.54;100.00
12195;BME280;27023;42.680;23.132;2022-09-01T03:56:08;92053.78;;;14.59;100.00
12195;BME280;27023;42.680;23.132;2022-09-01T03:58:36;92056.84;;;14.65;100.00
12195;BME280;27023;42.680;23.132;2022-09-01T04:01:04;92047.47;;;14.82;100.00
12195;BME280;27023;42.680;23.132;2022-09-01T04:03:32;92055.38;;;14.71;100.00
12195;BME280;27023;42.680;23.132;2022-09-01T04:06:01;92044.75;;;14.71;100.00
12195;BME280;27023;42.680;23.132;2022-09-01T04:08:28;92045.94;;;14.77;100.00
12195;BME280;27023;42.680;23.132;2022-09-01T04:10:57;92046.31;;;14.76;100.00
12195;BME280;27023;42.680;23.132;2022-09-01T04:13:28;92044.00;;;14.71;100.00
12195;BME280;27023;42.680;23.132;2022-09-01T04:15:57;92046.28;;;14.72;100.00
12195;BME280;27023;42.680;23.132;2022-09-01T04:18:25;92042.44;;;14.59;100.00
12195;BME280;27023;42.680;23.132;2022-09-01T04:20:53;92040.88;;;14.51;100.00
12195;BME280;27023;42.680;23.132;2022-09-01T04:23:24;92042.00;;;14.53;100.00
12195;BME280;27023;42.680;23.132;2022-09-01T04:25:54;92045.16;;;14.73;100.00
12195;BME280;27023;42.680;23.132;2022-09-01T04:28:23;92039.53;;;14.85;100.00
12195;BME280;27023;42.680;23.132;2022-09-01T04:30:55;92042.50;;;14.73;100.00
12195;BME280;27023;42.680;23.132;2022-09-01T04:33:26;92046.31;;;14.79;100.00
12195;BME280;27023;42.680;23.132;2022-09-01T04:36:03;92050.50;;;14.80;100.00
12195;BME280;27023;42.680;23.132;2022-09-01T04:38:30;92047.84;;;14.80;100.00
12195;BME280;27023;42.680;23.132;2022-09-01T04:41:02;92045.56;;;14.82;100.00
12195;BME280;27023;42.680;23.132;2022-09-01T04:43:30;92041.41;;;14.81;100.00
12195;BME280;27023;42.680;23.132;2022-09-01T04:45:57;92036.91;;;14.89;100.00
12195;BME280;27023;42.680;23.132;2022-09-01T04:48:25;92033.53;;;14.96;100.00
12195;BME280;27023;42.680;23.132;2022-09-01T04:50:52;92041.13;;;15.01;100.00
12195;BME280;27023;42.680;23.132;2022-09-01T04:53:21;92029.00;;;15.03;100.00
12195;BME280;27023;42.680;23.132;2022-09-01T04:55:49;92028.28;;;15.10;100.00
12195;BME280;27023;42.680;23.132;2022-09-01T04:58:17;92030.19;;;15.16;100.00
12195;BME280;27023;42.680;23.132;2022-09-01T05:00:45;92028.31;;;15.24;100.00
12195;BME280;27023;42.680;23.132;2022-09-01T05:03:13;92027.56;;;15.34;100.00
12195;BME280;27023;42.680;23.132;2022-09-01T05:05:44;92036.31;;;15.45;100.00
12195;BME280;27023;42.680;23.132;2022-09-01T05:08:12;92034.06;;;15.51;100.00
12195;BME280;27023;42.680;23.132;2022-09-01T05:10:42;92032.63;;;15.61;100.00
12195;BME280;27023;42.680;23.132;2022-09-01T05:13:10;92037.56;;;15.76;100.00
12195;BME280;27023;42.680;23.132;2022-09-01T05:15:38;92037.56;;;16.15;100.00
12195;BME280;27023;42.680;23.132;2022-09-01T05:18:11;92041.38;;;16.29;100.00
12195;BME280;27023;42.680;23.132;2022-09-01T05:20:39;92041.00;;;16.27;100.00
12195;BME280;27023;42.680;23.132;2022-09-01T05:23:09;92032.66;;;16.35;100.00
12195;BME280;27023;42.680;23.132;2022-09-01T05:25:39;92038.69;;;16.50;100.00
12195;BME280;27023;42.680;23.132;2022-09-01T05:28:07;92033.31;;;16.86;100.00
12195;BME280;27023;42.680;23.132;2022-09-01T05:30:36;92043.91;;;17.14;100.00
12195;BME280;27023;42.680;23.132;2022-09-01T05:33:05;92035.78;;;17.39;100.00
12195;BME280;27023;42.680;23.132;2022-09-01T05:35:37;92052.03;;;17.62;100.00
12195;BME280;27023;42.680;23.132;2022-09-01T05:38:07;92049.31;;;17.76;100.00
12195;BME280;27023;42.680;23.132;2022-09-01T05:40:37;92053.84;;;17.83;100.00
12195;BME280;27023;42.680;23.132;2022-09-01T05:43:06;92051.09;;;17.97;100.00
12195;BME280;27023;42.680;23.132;2022-09-01T05:45:35;92053.72;;;18.04;100.00
12195;BME280;27023;42.680;23.132;2022-09-01T05:48:03;92052.50;;;18.13;100.00
12195;BME280;27023;42.680;23.132;2022-09-01T05:50:30;92052.03;;;18.25;100.00
12195;BME280;27023;42.680;23.132;2022-09-01T05:52:56;92053.19;;;18.24;100.00
12195;BME280;27023;42.680;23.132;2022-09-01T05:55:24;92056.25;;;18.22;100.00
12195;BME280;27023;42.680;23.132;2022-09-01T05:57:52;92048.22;;;18.26;100.00
12195;BME280;27023;42.680;23.132;2022-09-01T06:00:19;92054.28;;;18.30;100.00
12195;BME280;27023;42.680;23.132;2022-09-01T06:02:47;92051.97;;;18.32;100.00
12195;BME280;27023;42.680;23.132;2022-09-01T06:05:14;92048.13;;;18.36;100.00
12195;BME280;27023;42.680;23.132;2022-09-01T06:07:40;92047.31;;;18.43;100.00
12195;BME280;27023;42.680;23.132;2022-09-01T06:10:09;92041.34;;;18.25;100.00
12195;BME280;27023;42.680;23.132;2022-09-01T06:12:38;92040.47;;;18.38;100.00
12195;BME280;27023;42.680;23.132;2022-09-01T06:15:06;92036.25;;;18.41;100.00
12195;BME280;27023;42.680;23.132;2022-09-01T06:17:40;92048.03;;;18.47;100.00
12195;BME280;27023;42.680;23.132;2022-09-01T06:20:08;92048.81;;;18.44;100.00
12195;BME280;27023;42.680;23.132;2022-09-01T06:22:35;92054.22;;;18.37;100.00
12195;BME280;27023;42.680;23.132;2022-09-01T06:25:04;92048.56;;;18.28;100.00
12195;BME280;27023;42.680;23.132;2022-09-01T06:27:33;92053.53;;;18.26;100.00
12195;BME280;27023;42.680;23.132;2022-09-01T06:30:05;92057.34;;;18.28;100.00
12195;BME280;27023;42.680;23.132;2022-09-01T06:32:39;92058.88;;;18.26;100.00
12195;BME280;27023;42.680;23.132;2022-09-01T06:35:08;92050.47;;;18.27;100.00
12195;BME280;27023;42.680;23.132;2022-09-01T06:37:36;92041.69;;;18.30;100.00
12195;BME280;27023;42.680;23.132;2022-09-01T06:40:03;92041.28;;;18.35;100.00
12195;BME280;27023;42.680;23.132;2022-09-01T06:42:31;92048.09;;;18.40;100.00
12195;BME280;27023;42.680;23.132;2022-09-01T06:44:59;92041.22;;;18.42;100.00
12195;BME280;27023;42.680;23.132;2022-09-01T06:47:27;92047.31;;;18.43;100.00
12195;BME280;27023;42.680;23.132;2022-09-01T06:49:54;92050.41;;;18.38;100.00
12195;BME280;27023;42.680;23.132;2022-09-01T06:52:23;92049.75;;;18.23;100.00
12195;BME280;27023;42.680;23.132;2022-09-01T06:54:50;92040.56;;;18.28;100.00
12195;BME280;27023;42.680;23.132;2022-09-01T06:57:19;92042.47;;;18.27;100.00
12195;BME280;27023;42.680;23.132;2022-09-01T06:59:46;92049.25;;;18.39;100.00
12195;BME280;27023;42.680;23.132;2022-09-01T07:02:14;92039.84;;;18.24;100.00
12195;BME280;27023;42.680;23.132;2022-09-01T07:04:45;92042.69;;;18.47;100.00
12195;BME280;27023;42.680;23.132;2022-09-01T07:07:13;92050.22;;;18.59;100.00
12195;BME280;27023;42.680;23.132;2022-09-01T07:09:39;92050.22;;;18.63;100.00
12195;BME280;27023;42.680;23.132;2022-09-01T07:12:07;92037.25;;;18.65;100.00
12195;BME280;27023;42.680;23.132;2022-09-01T07:14:34;92050.03;;;18.81;100.00
12195;BME280;27023;42.680;23.132;2022-09-01T07:17:01;92056.47;;;18.87;100.00
12195;BME280;27023;42.680;23.132;2022-09-01T07:19:28;92048.50;;;18.83;100.00
12195;BME280;27023;42.680;23.132;2022-09-01T07:21:58;92056.50;;;18.83;100.00
12195;BME280;27023;42.680;23.132;2022-09-01T07:24:25;92056.03;;;18.92;100.00
12195;BME280;27023;42.680;23.132;2022-09-01T07:26:52;92053.38;;;18.92;100.00
12195;BME280;27023;42.680;23.132;2022-09-01T07:29:19;92059.81;;;18.94;100.00
12195;BME280;27023;42.680;23.132;2022-09-01T07:31:50;92058.28;;;18.97;100.00
12195;BME280;27023;42.680;23.132;2022-09-01T07:34:21;92057.84;;;19.02;100.00
12195;BME280;27023;42.680;23.132;2022-09-01T07:36:48;92061.22;;;19.06;100.00
12195;BME280;27023;42.680;23.132;2022-09-01T07:39:16;92058.88;;;19.12;100.00
12195;BME280;27023;42.680;23.132;2022-09-01T07:41:43;92059.19;;;19.17;100.00
12195;BME280;27023;42.680;23.132;2022-09-01T07:44:11;92065.22;;;19.25;100.00
12195;BME280;27023;42.680;23.132;2022-09-01T07:46:38;92064.75;;;19.33;100.00
12195;BME280;27023;42.680;23.132;2022-09-01T07:49:05;92067.69;;;19.43;100.00
12195;BME280;27023;42.680;23.132;2022-09-01T07:51:33;92058.59;;;19.36;100.00
12195;BME280;27023;42.680;23.132;2022-09-01T07:54:01;92062.69;;;19.45;100.00
12195;BME280;27023;42.680;23.132;2022-09-01T07:56:29;92062.66;;;19.48;100.00
12195;BME280;27023;42.680;23.132;2022-09-01T07:58:56;92064.53;;;19.51;100.00
12195;BME280;27023;42.680;23.132;2022-09-01T08:01:25;92064.16;;;19.15;100.00
12195;BME280;27023;42.680;23.132;2022-09-01T08:03:54;92069.34;;;19.29;100.00
12195;BME280;27023;42.680;23.132;2022-09-01T08:06:22;92057.28;;;19.52;100.00
12195;BME280;27023;42.680;23.132;2022-09-01T08:08:52;92065.94;;;19.63;100.00
12195;BME280;27023;42.680;23.132;2022-09-01T08:11:21;92060.53;;;19.66;100.00
12195;BME280;27023;42.680;23.132;2022-09-01T08:13:51;92064.22;;;19.76;100.00
12195;BME280;27023;42.680;23.132;2022-09-01T08:16:18;92068.03;;;19.79;100.00
12195;BME280;27023;42.680;23.132;2022-09-01T08:18:46;92054.16;;;19.87;100.00
12195;BME280;27023;42.680;23.132;2022-09-01T08:21:14;92066.16;;;20.03;100.00
12195;BME280;27023;42.680;23.132;2022-09-01T08:23:41;92067.59;;;20.11;100.00
12195;BME280;27023;42.680;23.132;2022-09-01T08:26:10;92067.47;;;20.18;100.00
12195;BME280;27023;42.680;23.132;2022-09-01T08:28:37;92065.25;;;20.13;100.00
12195;BME280;27023;42.680;23.132;2022-09-01T08:31:07;92067.38;;;20.25;100.00
12195;BME280;27023;42.680;23.132;2022-09-01T08:33:35;92060.03;;;20.29;100.00
12195;BME280;27023;42.680;23.132;2022-09-01T08:36:02;92064.63;;;20.28;100.00
12195;BME280;27023;42.680;23.132;2022-09-01T08:38:29;92061.81;;;20.39;100.00
12195;BME280;27023;42.680;23.132;2022-09-01T08:40:57;92056.66;;;20.52;100.00
12195;BME280;27023;42.680;23.132;2022-09-01T08:43:36;92059.72;;;20.50;100.00
12195;BME280;27023;42.680;23.132;2022-09-01T08:46:12;92050.69;;;20.64;100.00
12195;BME280;27023;42.680;23.132;2022-09-01T08:48:44;92051.34;;;20.72;100.00
12195;BME280;27023;42.680;23.132;2022-09-01T08:51:26;92044.47;;;20.47;100.00
12195;BME280;27023;42.680;23.132;2022-09-01T08:54:02;92046.72;;;20.72;100.00
12195;BME280;27023;42.680;23.132;2022-09-01T08:56:30;92045.06;;;20.82;100.00
12195;BME280;27023;42.680;23.132;2022-09-01T08:59:00;92041.09;;;20.90;100.00
12195;BME280;27023;42.680;23.132;2022-09-01T09:01:37;92046.31;;;20.97;100.00
12195;BME280;27023;42.680;23.132;2022-09-01T09:04:20;92045.34;;;21.07;100.00
12195;BME280;27023;42.680;23.132;2022-09-01T09:06:56;92046.88;;;21.08;100.00
12195;BME280;27023;42.680;23.132;2022-09-01T09:09:31;92045.91;;;21.18;100.00
12195;BME280;27023;42.680;23.132;2022-09-01T09:12:11;92039.06;;;21.37;100.00
12195;BME280;27023;42.680;23.132;2022-09-01T09:15:00;92042.91;;;21.56;100.00
12195;BME280;27023;42.680;23.132;2022-09-01T09:17:33;92041.59;;;21.24;100.00
12195;BME280;27023;42.680;23.132;2022-09-01T09:20:03;92038.63;;;21.19;100.00
12195;BME280;27023;42.680;23.132;2022-09-01T09:22:30;92034.75;;;21.23;100.00
12195;BME280;27023;42.680;23.132;2022-09-01T09:25:02;92037.34;;;21.47;100.00
12195;BME280;27023;42.680;23.132;2022-09-01T09:27:31;92032.88;;;21.60;100.00
12195;BME280;27023;42.680;23.132;2022-09-01T09:29:59;92035.91;;;21.62;100.00
12195;BME280;27023;42.680;23.132;2022-09-01T09:32:44;92028.78;;;21.72;100.00
12195;BME280;27023;42.680;23.132;2022-09-01T09:35:24;92026.03;;;21.75;100.00
12195;BME280;27023;42.680;23.132;2022-09-01T09:37:51;92026.38;;;21.77;100.00
12195;BME280;27023;42.680;23.132;2022-09-01T09:40:19;92023.13;;;21.86;100.00
12195;BME280;27023;42.680;23.132;2022-09-01T09:43:05;92021.81;;;22.10;100.00
12195;BME280;27023;42.680;23.132;2022-09-01T09:45:35;92021.81;;;22.27;100.00
12195;BME280;27023;42.680;23.132;2022-09-01T09:48:06;92028.28;;;22.13;100.00
12195;BME280;27023;42.680;23.132;2022-09-01T09:50:36;92025.97;;;22.31;100.00
12195;BME280;27023;42.680;23.132;2022-09-01T09:53:13;92021.25;;;22.51;100.00
12195;BME280;27023;42.680;23.132;2022-09-01T09:55:52;92018.31;;;23.07;100.00
12195;BME280;27023;42.680;23.132;2022-09-01T09:58:21;92020.28;;;23.20;100.00
12195;BME280;27023;42.680;23.132;2022-09-01T10:00:58;92010.34;;;23.04;100.00
12195;BME280;27023;42.680;23.132;2022-09-01T10:03:39;92015.00;;;22.71;100.00
12195;BME280;27023;42.680;23.132;2022-09-01T10:06:12;92007.31;;;23.02;100.00
12195;BME280;27023;42.680;23.132;2022-09-01T10:08:43;92011.38;;;23.23;100.00
12195;BME280;27023;42.680;23.132;2022-09-01T10:11:23;92014.19;;;23.32;100.00
12195;BME280;27023;42.680;23.132;2022-09-01T10:13:51;92003.84;;;23.18;100.00
12195;BME280;27023;42.680;23.132;2022-09-01T10:16:24;92002.28;;;23.45;100.00
12195;BME280;27023;42.680;23.132;2022-09-01T10:18:54;92003.53;;;23.28;100.00
12195;BME280;27023;42.680;23.132;2022-09-01T10:21:30;92000.16;;;23.53;100.00
12195;BME280;27023;42.680;23.132;2022-09-01T10:23:58;91999.66;;;23.58;100.00
12195;BME280;27023;42.680;23.132;2022-09-01T10:26:29;91999.44;;;23.65;100.00
12195;BME280;27023;42.680;23.132;2022-09-01T10:29:00;91994.41;;;23.26;100.00
12195;BME280;27023;42.680;23.132;2022-09-01T10:31:31;91985.22;;;23.10;100.00
12195;BME280;27023;42.680;23.132;2022-09-01T10:34:03;91990.28;;;22.92;100.00
12195;BME280;27023;42.680;23.132;2022-09-01T10:36:31;91990.03;;;23.44;100.00
12195;BME280;27023;42.680;23.132;2022-09-01T10:38:58;91994.41;;;23.80;100.00
12195;BME280;27023;42.680;23.132;2022-09-01T10:41:49;91996.34;;;24.18;100.00
12195;BME280;27023;42.680;23.132;2022-09-01T10:44:20;91988.56;;;24.45;100.00
12195;BME280;27023;42.680;23.132;2022-09-01T10:46:48;91988.75;;;24.51;100.00
12195;BME280;27023;42.680;23.132;2022-09-01T10:55:47;91989.31;;;25.58;96.25
12195;BME280;27023;42.680;23.132;2022-09-01T10:58:49;91985.81;;;26.42;91.25
12195;BME280;27023;42.680;23.132;2022-09-01T11:02:02;91990.31;;;26.54;90.79
12195;BME280;27023;42.680;23.132;2022-09-01T11:07:31;91960.75;;;27.69;71.85
12195;BME280;27023;42.680;23.132;2022-09-01T11:10:22;91946.53;;;30.10;59.94
12195;BME280;27023;42.680;23.132;2022-09-01T11:13:10;91937.72;;;31.88;49.41
12195;BME280;27023;42.680;23.132;2022-09-01T11:15:42;91933.41;;;35.28;42.59
12195;BME280;27023;42.680;23.132;2022-09-01T11:18:13;91923.47;;;37.05;39.70
12195;BME280;27023;42.680;23.132;2022-09-01T11:20:41;91917.53;;;37.01;35.25
12195;BME280;27023;42.680;23.132;2022-09-01T11:23:11;91909.41;;;37.51;36.54
12195;BME280;27023;42.680;23.132;2022-09-01T11:25:41;91903.44;;;34.89;38.86
12195;BME280;27023;42.680;23.132;2022-09-01T11:28:37;91893.91;;;33.48;41.78
12195;BME280;27023;42.680;23.132;2022-09-01T11:31:29;91889.06;;;31.18;48.57
12195;BME280;27023;42.680;23.132;2022-09-01T11:34:08;91883.28;;;30.09;52.88
12195;BME280;27023;42.680;23.132;2022-09-01T11:36:45;91885.38;;;28.72;54.64
12195;BME280;27023;42.680;23.132;2022-09-01T11:39:27;91883.13;;;27.99;56.04
12195;BME280;27023;42.680;23.132;2022-09-01T11:41:57;91881.19;;;26.88;61.64
12195;BME280;27023;42.680;23.132;2022-09-01T11:44:30;91886.44;;;26.82;66.07
12195;BME280;27023;42.680;23.132;2022-09-01T11:47:02;91881.94;;;26.79;65.19
12195;BME280;27023;42.680;23.132;2022-09-01T11:49:32;91877.72;;;26.60;64.75
12195;BME280;27023;42.680;23.132;2022-09-01T11:52:00;91880.44;;;26.42;63.61
12195;BME280;27023;42.680;23.132;2022-09-01T11:54:31;91884.28;;;26.13;67.81
12195;BME280;27023;42.680;23.132;2022-09-01T11:57:16;91873.69;;;25.88;66.48
12195;BME280;27023;42.680;23.132;2022-09-01T11:59:45;91877.91;;;25.89;67.54
12195;BME280;27023;42.680;23.132;2022-09-01T12:02:16;91866.97;;;25.92;63.27
12195;BME280;27023;42.680;23.132;2022-09-01T12:04:43;91859.78;;;25.98;59.22
12195;BME280;27023;42.680;23.132;2022-09-01T12:07:14;91862.50;;;26.08;63.25
12195;BME280;27023;42.680;23.132;2022-09-01T12:09:49;91873.22;;;25.40;77.21
12195;BME280;27023;42.680;23.132;2022-09-01T12:12:30;91880.16;;;25.19;83.93
12195;BME280;27023;42.680;23.132;2022-09-01T12:14:59;91872.06;;;24.54;87.57
12195;BME280;27023;42.680;23.132;2022-09-01T12:17:26;91868.63;;;24.53;92.59
12195;BME280;27023;42.680;23.132;2022-09-01T12:19:53;91872.03;;;24.32;94.28
12195;BME280;27023;42.680;23.132;2022-09-01T12:22:21;91871.28;;;24.31;87.21
12195;BME280;27023;42.680;23.132;2022-09-01T12:24:50;91866.84;;;24.37;93.42
12195;BME280;27023;42.680;23.132;2022-09-01T12:27:17;91863.72;;;23.92;99.63
12195;BME280;27023;42.680;23.132;2022-09-01T12:29:44;91863.84;;;23.63;100.00
12195;BME280;27023;42.680;23.132;2022-09-01T12:32:14;91869.78;;;23.58;100.00
12195;BME280;27023;42.680;23.132;2022-09-01T12:34:46;91867.91;;;23.93;98.67
12195;BME280;27023;42.680;23.132;2022-09-01T12:37:20;91864.50;;;23.80;100.00
12195;BME280;27023;42.680;23.132;2022-09-01T12:39:49;91866.75;;;23.68;100.00
12195;BME280;27023;42.680;23.132;2022-09-01T12:42:25;91865.34;;;23.76;100.00
12195;BME280;27023;42.680;23.132;2022-09-01T12:44:55;91863.94;;;23.85;100.00
12195;BME280;27023;42.680;23.132;2022-09-01T12:47:46;91867.91;;;23.93;100.00
12195;BME280;27023;42.680;23.132;2022-09-01T12:50:41;91865.16;;;24.18;100.00
12195;BME280;27023;42.680;23.132;2022-09-01T12:53:20;91877.78;;;24.08;100.00
12195;BME280;27023;42.680;23.132;2022-09-01T12:55:58;91866.22;;;24.33;100.00
12195;BME280;27023;42.680;23.132;2022-09-01T12:58:27;91865.06;;;24.09;100.00
12195;BME280;27023;42.680;23.132;2022-09-01T13:00:59;91862.63;;;24.36;100.00
12195;BME280;27023;42.680;23.132;2022-09-01T13:03:27;91849.78;;;24.53;100.00
12195;BME280;27023;42.680;23.132;2022-09-01T13:05:56;91842.91;;;24.39;100.00